createdAt,value
2022-10-01T00:02:07.933Z,9.02
2022-10-01T00:04:39.271Z,8.00
2022-10-01T00:07:11.095Z,8.73
2022-10-01T00:09:38.550Z,11.03
2022-10-01T00:12:08.131Z,7.32
2022-10-01T00:14:37.260Z,7.82
2022-10-01T00:17:04.099Z,8.90
2022-10-01T00:19:31.058Z,8.88
2022-10-01T00:21:57.950Z,8.63
2022-10-01T00:24:25.010Z,7.63
2022-10-01T00:26:53.251Z,8.18
2022-10-01T00:29:21.241Z,6.28
2022-10-01T00:31:48.251Z,4.72
2022-10-01T00:34:15.526Z,8.23
2022-10-01T00:36:44.368Z,5.95
2022-10-01T00:39:12.350Z,4.82
2022-10-01T00:41:39.363Z,5.32
2022-10-01T00:44:27.609Z,6.10
2022-10-01T00:47:10.185Z,6.63
2022-10-01T00:49:39.701Z,4.40
2022-10-01T00:52:13.806Z,5.78
2022-10-01T00:55:03.361Z,6.15
2022-10-01T00:57:32.705Z,5.57
2022-10-01T01:00:07.268Z,5.03
2022-10-01T01:02:34.694Z,3.90
2022-10-01T01:05:02.290Z,4.78
2022-10-01T01:07:31.818Z,5.78
2022-10-01T01:10:01.197Z,4.05
2022-10-01T01:12:48.429Z,3.08
2022-10-01T01:15:21.606Z,2.55
2022-10-01T01:18:13.378Z,6.53
2022-10-01T01:20:56.558Z,3.45
2022-10-01T01:23:31.458Z,3.10
2022-10-01T01:26:45.884Z,3.05
2022-10-01T01:29:25.219Z,2.67
2022-10-01T01:32:00.694Z,3.75
2022-10-01T01:34:31.832Z,2.70
2022-10-01T01:37:06.283Z,6.68
2022-10-01T01:39:35.547Z,3.92
2022-10-01T01:42:10.235Z,2.50
2022-10-01T01:44:41.118Z,3.17
2022-10-01T01:47:10.709Z,2.13
2022-10-01T01:49:42.167Z,2.65
2022-10-01T01:52:15.083Z,4.65
2022-10-01T01:54:44.879Z,3.00
2022-10-01T01:57:13.223Z,1.65
2022-10-01T01:59:41.882Z,1.83
2022-10-01T02:02:17.279Z,1.40
2022-10-01T02:04:49.156Z,2.53
2022-10-01T02:07:31.485Z,1.50
2022-10-01T02:10:02.358Z,2.28
2022-10-01T02:13:01.536Z,2.97
2022-10-01T02:15:48.193Z,1.70
2022-10-01T02:18:54.933Z,2.22
2022-10-01T02:21:38.723Z,1.05
2022-10-01T02:24:24.623Z,1.92
2022-10-01T02:26:53.411Z,3.92
2022-10-01T02:29:24.749Z,1.55
2022-10-01T02:31:55.830Z,1.85
2022-10-01T02:34:30.346Z,1.25
2022-10-01T02:37:00.980Z,1.77
2022-10-01T02:39:32.624Z,1.08
2022-10-01T02:42:02.780Z,1.25
2022-10-01T02:44:40.278Z,1.88
2022-10-01T02:47:24.650Z,2.45
2022-10-01T02:49:53.170Z,0.80
2022-10-01T02:52:45.721Z,1.20
2022-10-01T02:55:20.440Z,1.35
2022-10-01T02:57:48.362Z,1.77
2022-10-01T03:00:21.998Z,1.98
2022-10-01T03:02:50.479Z,2.15
2022-10-01T03:05:17.818Z,3.90
2022-10-01T03:07:47.999Z,2.75
2022-10-01T03:10:16.185Z,2.63
2022-10-01T03:12:46.673Z,3.03
2022-10-01T03:15:16.234Z,3.92
2022-10-01T03:17:44.222Z,2.50
2022-10-01T03:20:13.347Z,2.58
2022-10-01T03:22:46.157Z,2.20
2022-10-01T03:25:16.171Z,2.00
2022-10-01T03:27:46.649Z,2.88
2022-10-01T03:34:39.269Z,4.18
2022-10-01T03:37:09.654Z,4.05
2022-10-01T03:39:37.748Z,3.63
2022-10-01T03:42:06.006Z,3.95
2022-10-01T03:44:36.048Z,3.03
2022-10-01T03:47:05.265Z,6.18
2022-10-01T03:49:34.315Z,4.13
2022-10-01T03:52:04.149Z,2.55
2022-10-01T03:54:34.390Z,5.05
2022-10-01T03:57:04.523Z,5.60
2022-10-01T03:59:31.531Z,2.83
2022-10-01T04:01:59.529Z,4.28
2022-10-01T04:04:28.965Z,2.70
2022-10-01T04:06:56.286Z,3.92
2022-10-01T04:09:26.358Z,4.75
2022-10-01T04:11:53.375Z,2.42
2022-10-01T04:14:21.397Z,3.88
2022-10-01T04:16:52.645Z,3.03
2022-10-01T04:19:21.333Z,2.10
2022-10-01T04:21:49.618Z,4.15
2022-10-01T04:24:17.630Z,2.88
2022-10-01T04:26:51.944Z,2.35
2022-10-01T04:29:18.985Z,5.55
2022-10-01T04:31:45.961Z,2.67
2022-10-01T04:34:17.056Z,2.53
2022-10-01T04:36:44.997Z,2.30
2022-10-01T04:39:13.028Z,1.58
2022-10-01T04:41:43.020Z,1.95
2022-10-01T04:44:10.555Z,1.30
2022-10-01T04:46:38.707Z,3.38
2022-10-01T04:49:06.833Z,2.42
2022-10-01T04:51:34.977Z,1.48
2022-10-01T04:54:03.125Z,1.45
2022-10-01T04:56:33.308Z,1.88
2022-10-01T04:59:01.171Z,4.60
2022-10-01T05:01:28.120Z,3.58
2022-10-01T05:03:56.020Z,2.70
2022-10-01T05:06:24.167Z,2.80
2022-10-01T05:08:54.938Z,3.67
2022-10-01T05:11:25.129Z,3.28
2022-10-01T05:13:53.033Z,1.90
2022-10-01T05:16:22.262Z,3.00
2022-10-01T05:18:52.358Z,2.70
2022-10-01T05:21:20.565Z,5.53
2022-10-01T05:23:47.381Z,4.32
2022-10-01T05:26:16.377Z,4.65
2022-10-01T05:28:44.701Z,2.35
2022-10-01T05:31:13.578Z,2.65
2022-10-01T05:33:42.385Z,4.45
2022-10-01T05:36:11.590Z,2.40
2022-10-01T05:38:42.370Z,3.90
2022-10-01T05:41:10.717Z,3.85
2022-10-01T05:43:40.709Z,4.43
2022-10-01T05:46:14.423Z,5.60
2022-10-01T05:48:41.584Z,4.60
2022-10-01T05:51:08.572Z,5.43
2022-10-01T05:53:37.732Z,2.15
2022-10-01T05:56:09.164Z,5.85
2022-10-01T05:58:39.132Z,5.10
2022-10-01T06:01:09.988Z,5.00
2022-10-01T06:03:39.197Z,8.65
2022-10-01T06:06:07.003Z,5.68
2022-10-01T06:08:35.627Z,4.75
2022-10-01T06:11:06.024Z,7.80
2022-10-01T06:13:36.036Z,6.57
2022-10-01T06:16:07.297Z,5.97
2022-10-01T06:18:35.381Z,5.57
2022-10-01T06:21:11.519Z,7.18
2022-10-01T06:23:38.388Z,3.30
2022-10-01T06:26:06.666Z,10.98
2022-10-01T06:28:33.599Z,3.38
2022-10-01T06:31:03.840Z,6.13
2022-10-01T06:33:31.011Z,5.32
2022-10-01T06:35:57.963Z,11.13
2022-10-01T06:38:25.560Z,7.35
2022-10-01T06:40:57.828Z,9.40
2022-10-01T06:43:26.618Z,6.68
2022-10-01T06:45:54.058Z,8.13
2022-10-01T06:48:25.020Z,7.32
2022-10-01T06:50:54.667Z,8.90
2022-10-01T06:53:22.335Z,12.70
2022-10-01T06:55:50.075Z,9.15
2022-10-01T06:58:28.438Z,10.45
2022-10-01T07:01:05.216Z,16.48
2022-10-01T07:03:33.372Z,7.63
2022-10-01T07:06:05.933Z,12.00
2022-10-01T07:11:02.476Z,13.77
2022-10-01T07:13:30.342Z,13.45
2022-10-01T07:16:04.004Z,11.77
2022-10-01T07:18:31.489Z,15.82
2022-10-01T07:20:59.693Z,13.90
2022-10-01T07:23:28.869Z,12.45
2022-10-01T07:25:59.117Z,12.80
2022-10-01T07:28:27.422Z,8.80
2022-10-01T07:31:01.012Z,15.13
2022-10-01T07:33:28.697Z,18.08
2022-10-01T07:35:55.922Z,17.92
2022-10-01T07:38:23.318Z,19.83
2022-10-01T07:40:55.238Z,18.00
2022-10-01T07:43:23.756Z,16.05
2022-10-01T07:45:55.136Z,20.88
2022-10-01T07:48:27.625Z,31.95
2022-10-01T07:51:17.827Z,14.27
2022-10-01T07:53:50.335Z,19.73
2022-10-01T07:56:33.906Z,23.40
2022-10-01T07:59:04.117Z,24.55
2022-10-01T08:01:36.058Z,22.50
2022-10-01T08:04:24.745Z,19.02
2022-10-01T08:06:54.778Z,24.63
2022-10-01T08:09:25.022Z,13.95
2022-10-01T08:11:52.286Z,13.95
2022-10-01T08:14:23.005Z,24.17
2022-10-01T08:16:51.069Z,26.35
2022-10-01T08:19:21.214Z,20.42
2022-10-01T08:21:48.443Z,22.58
2022-10-01T08:24:16.571Z,23.10
2022-10-01T08:26:46.268Z,23.23
2022-10-01T08:29:17.157Z,21.05
2022-10-01T08:31:44.282Z,25.55
2022-10-01T08:34:13.349Z,20.23
2022-10-01T08:36:41.190Z,26.27
2022-10-01T08:39:08.217Z,24.50
2022-10-01T08:42:03.513Z,23.92
2022-10-01T08:44:46.173Z,23.10
2022-10-01T08:49:51.556Z,28.60
2022-10-01T08:52:26.209Z,19.55
2022-10-01T08:55:01.924Z,23.23
2022-10-01T08:57:39.859Z,19.77
2022-10-01T09:00:13.980Z,30.13
2022-10-01T09:02:43.841Z,28.30
2022-10-01T09:05:20.387Z,18.75
2022-10-01T09:08:11.237Z,22.38
2022-10-01T09:11:05.900Z,25.90
2022-10-01T09:13:51.811Z,20.35
2022-10-01T09:16:37.535Z,28.70
2022-10-01T09:19:43.438Z,34.10
2022-10-01T09:22:44.458Z,14.90
2022-10-01T09:25:14.619Z,19.92
2022-10-01T09:27:45.039Z,17.30
2022-10-01T09:30:24.835Z,25.45
2022-10-01T09:36:23.541Z,21.85
2022-10-01T09:39:32.891Z,19.77
2022-10-01T09:42:01.436Z,28.50
2022-10-01T09:44:31.757Z,28.65
2022-10-01T09:46:58.842Z,30.02
2022-10-01T09:49:46.307Z,22.17
2022-10-01T09:52:36.415Z,21.50
2022-10-01T09:55:18.830Z,28.67
2022-10-01T09:57:53.911Z,19.88
2022-10-01T10:00:25.410Z,27.75
2022-10-01T10:02:54.957Z,35.72
2022-10-01T10:05:23.650Z,16.50
2022-10-01T10:07:58.191Z,19.67
2022-10-01T10:10:42.461Z,35.28
2022-10-01T10:13:39.255Z,27.50
2022-10-01T10:16:18.511Z,17.95
2022-10-01T10:18:53.279Z,24.27
2022-10-01T10:21:34.016Z,32.22
2022-10-01T10:24:05.968Z,16.98
2022-10-01T10:26:39.300Z,26.35
2022-10-01T10:29:24.263Z,25.38
2022-10-01T10:31:54.266Z,28.58
2022-10-01T10:34:38.398Z,19.75
2022-10-01T10:37:31.242Z,21.98
2022-10-01T10:39:58.487Z,19.15
2022-10-01T10:42:29.038Z,24.05
2022-10-01T10:45:03.631Z,19.25
2022-10-01T10:47:44.175Z,17.88
2022-10-01T10:50:29.166Z,16.45
2022-10-01T10:52:57.817Z,23.02
2022-10-01T10:55:31.241Z,17.40
2022-10-01T10:58:14.041Z,24.77
2022-10-01T11:03:24.820Z,17.87
2022-10-01T11:05:56.232Z,12.25
2022-10-01T11:08:27.685Z,19.20
2022-10-01T11:10:54.412Z,16.25
2022-10-01T11:14:08.481Z,17.23
2022-10-01T11:16:57.032Z,17.10
2022-10-01T11:19:24.138Z,18.63
2022-10-01T11:22:05.774Z,17.38
2022-10-01T11:25:01.155Z,16.83
2022-10-01T11:27:36.214Z,17.95
2022-10-01T11:30:20.216Z,14.73
2022-10-01T11:33:18.396Z,16.35
2022-10-01T11:36:03.074Z,14.07
2022-10-01T11:38:51.485Z,12.85
2022-10-01T11:41:58.917Z,13.93
2022-10-01T11:45:04.681Z,18.58
2022-10-01T11:47:41.692Z,13.82
2022-10-01T11:50:25.174Z,18.20
2022-10-01T11:53:03.376Z,16.55
2022-10-01T11:56:03.923Z,12.50
2022-10-01T11:58:50.307Z,17.00
2022-10-01T12:01:40.072Z,17.30
2022-10-01T12:04:39.947Z,11.38
2022-10-01T12:07:30.149Z,14.73
2022-10-01T12:10:02.773Z,13.30
2022-10-01T12:12:48.380Z,15.55
2022-10-01T12:15:29.090Z,12.02
2022-10-01T12:18:49.683Z,13.25
2022-10-01T12:21:48.444Z,11.57
2022-10-01T12:24:34.594Z,16.73
2022-10-01T12:27:35.228Z,13.85
2022-10-01T12:30:03.207Z,8.88
2022-10-01T12:32:47.200Z,13.13
2022-10-01T12:35:51.085Z,12.00
2022-10-01T12:38:42.981Z,13.45
2022-10-01T12:41:27.002Z,11.57
2022-10-01T12:44:18.201Z,10.27
2022-10-01T12:46:52.351Z,11.25
2022-10-01T12:49:34.086Z,9.48
2022-10-01T12:52:19.853Z,9.00
2022-10-01T12:55:29.669Z,9.82
2022-10-01T12:58:20.950Z,14.40
2022-10-01T13:01:31.204Z,8.43
2022-10-01T13:04:05.346Z,10.80
2022-10-01T13:10:12.449Z,11.80
2022-10-01T13:13:08.191Z,13.38
2022-10-01T13:15:39.460Z,12.77
2022-10-01T13:18:36.758Z,17.30
2022-10-01T13:21:25.208Z,11.15
2022-10-01T13:24:13.815Z,14.98
2022-10-01T13:26:58.387Z,17.63
2022-10-01T13:29:47.166Z,9.25
2022-10-01T13:32:27.125Z,14.93
2022-10-01T13:34:57.605Z,15.23
2022-10-01T13:37:30.547Z,12.80
2022-10-01T13:40:03.745Z,13.38
2022-10-01T13:42:52.343Z,13.57
2022-10-01T13:45:31.576Z,12.82
2022-10-01T13:48:22.105Z,18.27
2022-10-01T13:51:02.907Z,11.45
2022-10-01T13:53:36.493Z,14.20
2022-10-01T13:56:05.259Z,10.73
2022-10-01T13:58:35.487Z,14.68
2022-10-01T14:01:05.570Z,18.00
2022-10-01T14:03:53.405Z,9.80
2022-10-01T14:06:35.459Z,8.32
2022-10-01T14:09:27.709Z,12.93
2022-10-01T14:12:27.505Z,17.30
2022-10-01T14:15:16.946Z,10.63
2022-10-01T14:18:19.520Z,10.73
2022-10-01T14:20:49.517Z,10.93
2022-10-01T14:23:42.141Z,10.95
2022-10-01T14:26:33.940Z,16.02
2022-10-01T14:29:40.518Z,11.53
2022-10-01T14:32:37.181Z,10.95
2022-10-01T14:35:32.400Z,9.48
2022-10-01T14:38:21.041Z,12.60
2022-10-01T14:40:50.354Z,9.30
2022-10-01T14:43:29.546Z,13.15
2022-10-01T14:46:01.877Z,10.55
2022-10-01T14:51:04.159Z,9.43
2022-10-01T14:53:34.909Z,10.80
2022-10-01T14:56:06.643Z,9.57
2022-10-01T14:58:39.135Z,11.30
2022-10-01T15:03:50.567Z,11.25
2022-10-01T15:06:47.386Z,12.53
2022-10-01T15:09:24.025Z,9.23
2022-10-01T15:11:54.445Z,10.13
2022-10-01T15:14:53.182Z,11.20
2022-10-01T15:17:25.213Z,12.50
2022-10-01T15:19:56.720Z,6.80
2022-10-01T15:22:27.821Z,13.18
2022-10-01T15:24:59.637Z,12.05
2022-10-01T15:27:27.350Z,13.32
2022-10-01T15:29:59.147Z,8.77
2022-10-01T15:32:33.813Z,12.80
2022-10-01T15:35:01.691Z,11.40
2022-10-01T15:37:35.832Z,10.70
2022-10-01T15:40:09.685Z,11.48
2022-10-01T15:43:15.638Z,13.02
2022-10-01T15:45:44.321Z,15.90
2022-10-01T15:48:30.116Z,18.25
2022-10-01T15:51:04.950Z,12.55
2022-10-01T15:53:34.586Z,16.55
2022-10-01T15:56:13.057Z,13.15
2022-10-01T15:58:54.676Z,15.68
2022-10-01T16:01:25.216Z,14.55
2022-10-01T16:04:07.795Z,16.90
2022-10-01T16:06:40.147Z,10.52
2022-10-01T16:09:22.574Z,13.25
2022-10-01T16:12:04.239Z,15.50
2022-10-01T16:14:44.159Z,10.77
2022-10-01T16:17:17.460Z,15.73
2022-10-01T16:20:22.115Z,15.52
2022-10-01T16:22:50.961Z,11.48
2022-10-01T16:25:24.877Z,12.40
2022-10-01T16:28:01.487Z,16.55
2022-10-01T16:30:32.482Z,14.80
2022-10-01T16:33:04.525Z,12.43
2022-10-01T16:35:35.678Z,16.88
2022-10-01T16:38:09.537Z,13.35
2022-10-01T16:40:40.554Z,14.32
2022-10-01T16:43:22.724Z,13.25
2022-10-01T16:45:50.700Z,13.50
2022-10-01T16:48:22.342Z,15.20
2022-10-01T16:50:53.574Z,12.80
2022-10-01T16:53:21.916Z,12.60
2022-10-01T16:55:52.740Z,15.40
2022-10-01T16:58:22.240Z,12.80
2022-10-01T17:00:50.767Z,17.85
2022-10-01T17:03:22.422Z,10.63
2022-10-01T17:05:51.314Z,16.73
2022-10-01T17:08:18.379Z,18.23
2022-10-01T17:10:51.710Z,12.73
2022-10-01T17:13:18.583Z,20.55
2022-10-01T17:15:48.427Z,14.60
2022-10-01T17:18:16.818Z,18.08
2022-10-01T17:20:43.813Z,13.02
2022-10-01T17:23:11.796Z,13.48
2022-10-01T17:25:42.242Z,10.50
2022-10-01T17:28:16.677Z,13.40
2022-10-01T17:30:49.033Z,16.85
2022-10-01T17:33:19.768Z,16.67
2022-10-01T17:35:54.916Z,14.27
2022-10-01T17:38:24.035Z,14.55
2022-10-01T17:40:56.611Z,14.48
2022-10-01T17:43:24.944Z,17.15
2022-10-01T17:46:06.398Z,15.13
2022-10-01T17:48:34.470Z,15.57
2022-10-01T17:51:07.150Z,15.68
2022-10-01T17:53:42.128Z,18.85
2022-10-01T17:56:15.164Z,19.58
2022-10-01T18:01:20.137Z,18.77
2022-10-01T18:04:14.968Z,19.63
2022-10-01T18:06:41.928Z,20.00
2022-10-01T18:09:10.810Z,20.65
2022-10-01T18:11:39.453Z,15.43
2022-10-01T18:14:07.673Z,17.40
2022-10-01T18:16:40.031Z,15.98
2022-10-01T18:21:59.651Z,16.98
2022-10-01T18:24:29.942Z,19.73
2022-10-01T18:27:00.581Z,24.20
2022-10-01T18:29:28.649Z,20.83
2022-10-01T18:32:16.101Z,13.77
2022-10-01T18:35:05.858Z,18.55
2022-10-01T18:40:36.774Z,21.92
2022-10-01T18:43:18.177Z,18.23
2022-10-01T18:46:12.288Z,28.75
2022-10-01T18:48:49.132Z,25.65
2022-10-01T18:51:40.867Z,22.98
2022-10-01T18:54:31.939Z,20.80
2022-10-01T18:57:26.546Z,27.27
2022-10-01T19:00:23.670Z,26.08
2022-10-01T19:03:18.298Z,27.15
2022-10-01T19:05:57.139Z,29.17
2022-10-01T19:08:36.159Z,23.05
2022-10-01T19:11:25.755Z,30.50
2022-10-01T19:14:21.293Z,30.77
2022-10-01T19:17:13.914Z,24.40
2022-10-01T19:20:19.456Z,23.98
2022-10-01T19:23:02.634Z,28.50
2022-10-01T19:25:55.456Z,27.00
2022-10-01T19:28:44.351Z,31.85
2022-10-01T19:31:20.790Z,28.42
2022-10-01T19:34:26.890Z,30.50
2022-10-01T19:37:00.615Z,33.05
2022-10-01T19:39:32.574Z,33.63
2022-10-01T19:42:21.100Z,24.75
2022-10-01T19:45:05.257Z,31.30
2022-10-01T19:47:41.183Z,32.63
2022-10-01T19:50:24.968Z,35.13
2022-10-01T19:52:57.230Z,23.67
2022-10-01T19:55:33.979Z,30.15
2022-10-01T19:58:18.478Z,31.33
2022-10-01T20:00:52.971Z,24.58
2022-10-01T20:03:35.858Z,28.90
2022-10-01T20:06:08.707Z,30.05
2022-10-01T20:08:55.788Z,32.40
2022-10-01T20:11:23.527Z,24.98
2022-10-01T20:14:07.135Z,31.60
2022-10-01T20:16:43.838Z,26.85
2022-10-01T20:19:16.647Z,24.98
2022-10-01T20:21:46.798Z,25.13
2022-10-01T20:24:45.078Z,33.47
2022-10-01T20:27:32.720Z,24.92
2022-10-01T20:30:14.845Z,31.63
2022-10-01T20:33:02.332Z,30.13
2022-10-01T20:35:33.603Z,29.15
2022-10-01T20:38:09.032Z,30.20
2022-10-01T20:40:49.593Z,29.55
2022-10-01T20:46:51.766Z,34.00
2022-10-01T20:49:54.262Z,26.92
2022-10-01T20:53:01.681Z,32.15
2022-10-01T20:55:46.103Z,42.92
2022-10-01T20:58:24.735Z,28.70
2022-10-01T21:01:02.429Z,36.53
2022-10-01T21:04:19.167Z,34.22
2022-10-01T21:06:50.480Z,27.00
2022-10-01T21:09:41.714Z,38.10
2022-10-01T21:15:17.744Z,34.58
2022-10-01T21:18:01.063Z,35.88
2022-10-01T21:21:12.585Z,29.65
2022-10-01T21:24:23.144Z,26.23
2022-10-01T21:27:19.686Z,36.47
2022-10-01T21:30:01.082Z,33.72
2022-10-01T21:32:33.561Z,33.53
2022-10-01T21:35:15.624Z,44.10
2022-10-01T21:38:08.503Z,42.33
2022-10-01T21:41:05.787Z,29.05
2022-10-01T21:43:47.670Z,28.42
2022-10-01T21:46:24.877Z,26.23
2022-10-01T21:48:51.727Z,41.50
2022-10-01T21:51:31.194Z,33.90
2022-10-01T21:54:29.107Z,31.63
2022-10-01T21:56:58.698Z,36.20
2022-10-01T21:59:39.644Z,37.00
2022-10-01T22:02:28.271Z,24.95
2022-10-01T22:05:04.213Z,37.72
2022-10-01T22:07:39.683Z,34.00
2022-10-01T22:10:24.435Z,34.92
2022-10-01T22:12:58.804Z,28.80
2022-10-01T22:15:36.696Z,38.22
2022-10-01T22:18:06.532Z,28.27
2022-10-01T22:20:35.085Z,33.97
2022-10-01T22:23:08.303Z,34.22
2022-10-01T22:25:40.864Z,38.50
2022-10-01T22:30:41.745Z,45.33
2022-10-01T22:33:33.152Z,42.03
2022-10-01T22:36:13.029Z,40.05
2022-10-01T22:38:47.886Z,38.50
2022-10-01T22:41:23.716Z,36.95
2022-10-01T22:43:50.738Z,42.20
2022-10-01T22:46:36.694Z,34.63
2022-10-01T22:49:22.824Z,38.83
2022-10-01T22:52:04.221Z,40.65
2022-10-01T22:54:58.659Z,47.92
2022-10-01T22:57:31.702Z,38.00
2022-10-01T23:00:03.290Z,41.28
2022-10-01T23:02:44.733Z,49.05
2022-10-01T23:05:14.933Z,35.15
2022-10-01T23:08:03.709Z,37.92
2022-10-01T23:10:49.834Z,41.28
2022-10-01T23:13:42.368Z,37.85
2022-10-01T23:16:30.682Z,29.65
2022-10-01T23:19:26.417Z,31.52
2022-10-01T23:22:03.923Z,41.42
2022-10-01T23:24:36.603Z,38.38
2022-10-01T23:27:23.788Z,39.60
2022-10-01T23:29:59.441Z,45.85
2022-10-01T23:32:38.329Z,40.88
2022-10-01T23:35:42.787Z,41.78
2022-10-01T23:38:24.745Z,52.65
2022-10-01T23:40:52.194Z,36.53
2022-10-01T23:43:32.707Z,33.15
2022-10-01T23:46:11.317Z,36.95
2022-10-01T23:48:41.549Z,41.97
2022-10-01T23:51:23.484Z,34.22
2022-10-01T23:54:21.583Z,45.37
2022-10-01T23:57:19.181Z,34.50
